KMDJ/MDJ METAR and TAF weather

Enter ICAO airport designator
Station Type Date Time Source
KMDJ METAR 2020/07/03 22:00 UTC NOAA

KMDJ 032200Z AUTO 31017KT 9SM CLR 26/22 A2995 RMK A01


Station Type Date Time Source
KMDJ Decoded METAR 2020/07/03 22:00 UTC NOAA

Mississippi Canyon, LA, United States (KMDJ) 28-38-33N 089-47-39W
Jul 03, 2020 - 06:00 PM EDT / 2020.07.03 2200 UTC
Wind: from the NW (310 degrees) at 20 MPH (17 KT):0
Visibility: 9 mile(s):0
Sky conditions: clear
Temperature: 78 F (26 C)
Dew Point: 71 F (22 C)
Relative Humidity: 78%
Pressure (altimeter): 29.95 in. Hg (1014 hPa)
ob: KMDJ 032200Z AUTO 31017KT 9SM CLR 26/22 A2995 RMK A01
cycle: 22

Station Type Date Time Source
KMDJ TAF UTC NOAA

Error!

Example: see airport list